sensor_id;sensor_type;location;lat;lon;timestamp;temperature;humidity
44166;DHT22;30476;53.468;9.826;2023-04-24T00:00:18;14.10;99.90
44166;DHT22;30476;53.468;9.826;2023-04-24T00:02:44;14.10;99.90
44166;DHT22;30476;53.468;9.826;2023-04-24T00:05:14;14.00;99.90
44166;DHT22;30476;53.468;9.826;2023-04-24T00:07:41;14.10;99.90
44166;DHT22;30476;53.468;9.826;2023-04-24T00:10:07;14.10;99.90
44166;DHT22;30476;53.468;9.826;2023-04-24T00:12:34;14.00;99.90
44166;DHT22;30476;53.468;9.826;2023-04-24T00:15:00;14.00;99.90
44166;DHT22;30476;53.468;9.826;2023-04-24T00:17:26;14.00;99.90
44166;DHT22;30476;53.468;9.826;2023-04-24T00:19:51;14.10;99.90
44166;DHT22;30476;53.468;9.826;2023-04-24T00:22:28;14.00;99.90
44166;DHT22;30476;53.468;9.826;2023-04-24T00:24:54;14.00;99.90
44166;DHT22;30476;53.468;9.826;2023-04-24T00:27:20;14.00;99.90
44166;DHT22;30476;53.468;9.826;2023-04-24T00:29:46;13.90;99.90
44166;DHT22;30476;53.468;9.826;2023-04-24T00:32:11;14.00;99.90
44166;DHT22;30476;53.468;9.826;2023-04-24T00:34:37;14.00;99.90
44166;DHT22;30476;53.468;9.826;2023-04-24T00:37:03;13.90;99.90
44166;DHT22;30476;53.468;9.826;2023-04-24T00:39:29;13.90;99.90
44166;DHT22;30476;53.468;9.826;2023-04-24T00:41:55;13.90;99.90
44166;DHT22;30476;53.468;9.826;2023-04-24T00:44:22;13.90;99.90
44166;DHT22;30476;53.468;9.826;2023-04-24T00:46:49;13.80;99.90
44166;DHT22;30476;53.468;9.826;2023-04-24T00:49:23;13.80;99.90
44166;DHT22;30476;53.468;9.826;2023-04-24T00:51:49;13.70;99.90
44166;DHT22;30476;53.468;9.826;2023-04-24T00:54:17;13.80;99.90
44166;DHT22;30476;53.468;9.826;2023-04-24T00:56:44;13.70;99.90
44166;DHT22;30476;53.468;9.826;2023-04-24T00:59:12;13.70;99.90
44166;DHT22;30476;53.468;9.826;2023-04-24T01:01:39;13.70;99.90
44166;DHT22;30476;53.468;9.826;2023-04-24T01:04:08;13.70;99.90
44166;DHT22;30476;53.468;9.826;2023-04-24T01:06:38;13.60;99.90
44166;DHT22;30476;53.468;9.826;2023-04-24T01:09:05;13.60;99.90
44166;DHT22;30476;53.468;9.826;2023-04-24T01:11:31;13.60;99.90
44166;DHT22;30476;53.468;9.826;2023-04-24T01:13:57;13.60;99.90
44166;DHT22;30476;53.468;9.826;2023-04-24T01:16:24;13.60;99.90
44166;DHT22;30476;53.468;9.826;2023-04-24T01:18:50;13.60;99.90
44166;DHT22;30476;53.468;9.826;2023-04-24T01:21:17;13.60;99.90
44166;DHT22;30476;53.468;9.826;2023-04-24T01:23:44;13.50;99.90
44166;DHT22;30476;53.468;9.826;2023-04-24T01:26:11;13.50;99.90
44166;DHT22;30476;53.468;9.826;2023-04-24T01:28:37;13.50;99.90
44166;DHT22;30476;53.468;9.826;2023-04-24T01:31:04;13.50;99.90
44166;DHT22;30476;53.468;9.826;2023-04-24T01:33:30;13.40;99.90
44166;DHT22;30476;53.468;9.826;2023-04-24T01:35:56;13.30;99.90
44166;DHT22;30476;53.468;9.826;2023-04-24T01:38:22;13.30;99.90
44166;DHT22;30476;53.468;9.826;2023-04-24T01:40:47;13.40;99.90
44166;DHT22;30476;53.468;9.826;2023-04-24T01:43:13;13.30;99.90
44166;DHT22;30476;53.468;9.826;2023-04-24T01:45:39;13.40;99.90
44166;DHT22;30476;53.468;9.826;2023-04-24T01:48:05;13.30;99.90
44166;DHT22;30476;53.468;9.826;2023-04-24T01:50:31;13.30;99.90
44166;DHT22;30476;53.468;9.826;2023-04-24T01:52:57;13.30;99.90
44166;DHT22;30476;53.468;9.826;2023-04-24T01:55:23;13.30;99.90
44166;DHT22;30476;53.468;9.826;2023-04-24T01:57:49;13.30;99.90
44166;DHT22;30476;53.468;9.826;2023-04-24T02:00:15;13.20;99.90
44166;DHT22;30476;53.468;9.826;2023-04-24T02:02:41;13.20;99.90
44166;DHT22;30476;53.468;9.826;2023-04-24T02:05:08;13.10;99.90
44166;DHT22;30476;53.468;9.826;2023-04-24T02:07:34;13.20;99.90
44166;DHT22;30476;53.468;9.826;2023-04-24T02:10:00;13.20;99.90
44166;DHT22;30476;53.468;9.826;2023-04-24T02:12:25;13.20;99.90
44166;DHT22;30476;53.468;9.826;2023-04-24T02:14:51;13.20;99.90
44166;DHT22;30476;53.468;9.826;2023-04-24T02:17:17;13.20;99.90
44166;DHT22;30476;53.468;9.826;2023-04-24T02:19:45;13.10;99.90
44166;DHT22;30476;53.468;9.826;2023-04-24T02:22:11;13.10;99.90
44166;DHT22;30476;53.468;9.826;2023-04-24T02:24:37;13.10;99.90
44166;DHT22;30476;53.468;9.826;2023-04-24T02:27:03;13.20;99.90
44166;DHT22;30476;53.468;9.826;2023-04-24T02:29:29;13.10;99.90
44166;DHT22;30476;53.468;9.826;2023-04-24T02:31:55;13.10;99.90
44166;DHT22;30476;53.468;9.826;2023-04-24T02:34:20;13.10;99.90
44166;DHT22;30476;53.468;9.826;2023-04-24T02:36:46;13.10;99.90
44166;DHT22;30476;53.468;9.826;2023-04-24T02:39:12;13.00;99.90
44166;DHT22;30476;53.468;9.826;2023-04-24T02:41:39;13.00;99.90
44166;DHT22;30476;53.468;9.826;2023-04-24T02:44:04;13.00;99.90
44166;DHT22;30476;53.468;9.826;2023-04-24T02:46:30;13.00;99.90
44166;DHT22;30476;53.468;9.826;2023-04-24T02:48:56;13.00;99.90
44166;DHT22;30476;53.468;9.826;2023-04-24T02:51:21;12.90;99.90
44166;DHT22;30476;53.468;9.826;2023-04-24T02:53:47;12.90;99.90
44166;DHT22;30476;53.468;9.826;2023-04-24T02:56:13;12.80;99.90
44166;DHT22;30476;53.468;9.826;2023-04-24T02:58:39;12.90;99.90
44166;DHT22;30476;53.468;9.826;2023-04-24T03:01:05;12.80;99.90
44166;DHT22;30476;53.468;9.826;2023-04-24T03:03:30;12.80;99.90
44166;DHT22;30476;53.468;9.826;2023-04-24T03:05:56;12.70;99.90
44166;DHT22;30476;53.468;9.826;2023-04-24T03:08:23;12.70;99.90
44166;DHT22;30476;53.468;9.826;2023-04-24T03:10:48;12.60;99.90
44166;DHT22;30476;53.468;9.826;2023-04-24T03:13:16;12.70;99.90
44166;DHT22;30476;53.468;9.826;2023-04-24T03:15:42;12.60;99.90
44166;DHT22;30476;53.468;9.826;2023-04-24T03:18:08;12.60;99.90
44166;DHT22;30476;53.468;9.826;2023-04-24T03:20:33;12.60;99.90
44166;DHT22;30476;53.468;9.826;2023-04-24T03:22:59;12.50;99.90
44166;DHT22;30476;53.468;9.826;2023-04-24T03:25:25;12.50;99.90
44166;DHT22;30476;53.468;9.826;2023-04-24T03:27:51;12.40;99.90
44166;DHT22;30476;53.468;9.826;2023-04-24T03:30:17;12.40;99.90
44166;DHT22;30476;53.468;9.826;2023-04-24T03:32:43;12.40;99.90
44166;DHT22;30476;53.468;9.826;2023-04-24T03:35:09;12.40;99.90
44166;DHT22;30476;53.468;9.826;2023-04-24T03:37:35;12.30;99.90
44166;DHT22;30476;53.468;9.826;2023-04-24T03:40:01;12.30;99.90
44166;DHT22;30476;53.468;9.826;2023-04-24T03:42:27;12.30;99.90
44166;DHT22;30476;53.468;9.826;2023-04-24T03:44:53;12.30;99.90
44166;DHT22;30476;53.468;9.826;2023-04-24T03:47:19;12.20;99.90
44166;DHT22;30476;53.468;9.826;2023-04-24T03:49:44;12.10;99.90
44166;DHT22;30476;53.468;9.826;2023-04-24T03:52:10;12.10;99.90
44166;DHT22;30476;53.468;9.826;2023-04-24T03:54:36;12.20;99.90
44166;DHT22;30476;53.468;9.826;2023-04-24T03:57:02;12.10;99.90
44166;DHT22;30476;53.468;9.826;2023-04-24T03:59:29;12.10;99.90
44166;DHT22;30476;53.468;9.826;2023-04-24T04:01:54;12.10;99.90
44166;DHT22;30476;53.468;9.826;2023-04-24T04:04:20;12.10;99.90
44166;DHT22;30476;53.468;9.826;2023-04-24T04:06:46;12.10;99.90
44166;DHT22;30476;53.468;9.826;2023-04-24T04:09:12;12.10;99.90
44166;DHT22;30476;53.468;9.826;2023-04-24T04:11:38;12.00;99.90
44166;DHT22;30476;53.468;9.826;2023-04-24T04:14:03;12.00;99.90
44166;DHT22;30476;53.468;9.826;2023-04-24T04:16:29;12.00;99.90
44166;DHT22;30476;53.468;9.826;2023-04-24T04:18:55;11.90;99.90
44166;DHT22;30476;53.468;9.826;2023-04-24T04:21:21;11.90;99.90
44166;DHT22;30476;53.468;9.826;2023-04-24T04:23:47;11.80;99.90
44166;DHT22;30476;53.468;9.826;2023-04-24T04:26:13;11.90;99.90
44166;DHT22;30476;53.468;9.826;2023-04-24T04:28:39;11.90;99.90
44166;DHT22;30476;53.468;9.826;2023-04-24T04:31:06;11.80;99.90
44166;DHT22;30476;53.468;9.826;2023-04-24T04:33:33;11.80;99.90
44166;DHT22;30476;53.468;9.826;2023-04-24T04:35:59;11.80;99.90
44166;DHT22;30476;53.468;9.826;2023-04-24T04:38:25;11.70;99.90
44166;DHT22;30476;53.468;9.826;2023-04-24T04:40:55;11.70;99.90
44166;DHT22;30476;53.468;9.826;2023-04-24T04:43:23;11.70;99.90
44166;DHT22;30476;53.468;9.826;2023-04-24T04:45:50;11.70;99.90
44166;DHT22;30476;53.468;9.826;2023-04-24T04:48:17;11.70;99.90
44166;DHT22;30476;53.468;9.826;2023-04-24T04:50:44;11.80;99.90
44166;DHT22;30476;53.468;9.826;2023-04-24T04:53:10;11.80;99.90
44166;DHT22;30476;53.468;9.826;2023-04-24T04:55:36;11.80;99.90
44166;DHT22;30476;53.468;9.826;2023-04-24T04:58:02;11.80;99.90
44166;DHT22;30476;53.468;9.826;2023-04-24T05:00:28;11.90;99.90
44166;DHT22;30476;53.468;9.826;2023-04-24T05:03:00;11.90;99.90
44166;DHT22;30476;53.468;9.826;2023-04-24T05:05:25;11.90;99.90
44166;DHT22;30476;53.468;9.826;2023-04-24T05:07:51;11.90;99.90
44166;DHT22;30476;53.468;9.826;2023-04-24T05:10:17;11.90;99.90
44166;DHT22;30476;53.468;9.826;2023-04-24T05:12:43;11.80;99.90
44166;DHT22;30476;53.468;9.826;2023-04-24T05:15:09;11.90;99.90
44166;DHT22;30476;53.468;9.826;2023-04-24T05:17:35;11.80;99.90
44166;DHT22;30476;53.468;9.826;2023-04-24T05:20:01;11.90;99.90
44166;DHT22;30476;53.468;9.826;2023-04-24T05:22:27;11.90;99.90
44166;DHT22;30476;53.468;9.826;2023-04-24T05:24:52;11.90;99.90
44166;DHT22;30476;53.468;9.826;2023-04-24T05:27:19;11.90;99.90
44166;DHT22;30476;53.468;9.826;2023-04-24T05:29:44;11.90;99.90
44166;DHT22;30476;53.468;9.826;2023-04-24T05:32:10;11.90;99.90
44166;DHT22;30476;53.468;9.826;2023-04-24T05:34:36;12.00;99.90
44166;DHT22;30476;53.468;9.826;2023-04-24T05:37:02;12.00;99.90
44166;DHT22;30476;53.468;9.826;2023-04-24T05:39:28;12.00;99.90
44166;DHT22;30476;53.468;9.826;2023-04-24T05:41:54;12.00;99.90
44166;DHT22;30476;53.468;9.826;2023-04-24T05:44:23;12.10;99.90
44166;DHT22;30476;53.468;9.826;2023-04-24T05:46:49;12.10;99.90
44166;DHT22;30476;53.468;9.826;2023-04-24T05:49:14;12.20;99.90
44166;DHT22;30476;53.468;9.826;2023-04-24T05:51:40;12.20;99.90
44166;DHT22;30476;53.468;9.826;2023-04-24T05:54:06;12.20;99.90
44166;DHT22;30476;53.468;9.826;2023-04-24T05:56:32;12.20;99.90
44166;DHT22;30476;53.468;9.826;2023-04-24T05:58:58;12.20;99.90
44166;DHT22;30476;53.468;9.826;2023-04-24T06:01:24;12.30;99.90
44166;DHT22;30476;53.468;9.826;2023-04-24T06:03:50;12.40;99.90
44166;DHT22;30476;53.468;9.826;2023-04-24T06:06:16;12.50;99.90
44166;DHT22;30476;53.468;9.826;2023-04-24T06:08:42;12.50;99.90
44166;DHT22;30476;53.468;9.826;2023-04-24T06:11:09;12.50;99.90
44166;DHT22;30476;53.468;9.826;2023-04-24T06:13:35;12.60;99.90
44166;DHT22;30476;53.468;9.826;2023-04-24T06:16:01;12.60;99.90
44166;DHT22;30476;53.468;9.826;2023-04-24T06:18:27;12.80;99.90
44166;DHT22;30476;53.468;9.826;2023-04-24T06:20:52;12.80;99.90
44166;DHT22;30476;53.468;9.826;2023-04-24T06:23:18;12.80;99.90
44166;DHT22;30476;53.468;9.826;2023-04-24T06:25:44;12.90;99.90
44166;DHT22;30476;53.468;9.826;2023-04-24T06:28:10;12.90;99.90
44166;DHT22;30476;53.468;9.826;2023-04-24T06:30:36;13.00;99.90
44166;DHT22;30476;53.468;9.826;2023-04-24T06:33:01;13.00;99.90
44166;DHT22;30476;53.468;9.826;2023-04-24T06:35:27;13.10;99.90
44166;DHT22;30476;53.468;9.826;2023-04-24T06:37:53;13.20;99.90
44166;DHT22;30476;53.468;9.826;2023-04-24T06:40:19;13.20;99.90
44166;DHT22;30476;53.468;9.826;2023-04-24T06:42:44;13.30;99.90
44166;DHT22;30476;53.468;9.826;2023-04-24T06:45:10;13.50;99.90
44166;DHT22;30476;53.468;9.826;2023-04-24T06:47:36;13.40;99.90
44166;DHT22;30476;53.468;9.826;2023-04-24T06:50:03;13.50;99.90
44166;DHT22;30476;53.468;9.826;2023-04-24T06:52:29;13.50;99.90
44166;DHT22;30476;53.468;9.826;2023-04-24T06:55:02;13.50;99.90
44166;DHT22;30476;53.468;9.826;2023-04-24T06:57:28;13.70;99.90
44166;DHT22;30476;53.468;9.826;2023-04-24T06:59:55;13.70;99.90
44166;DHT22;30476;53.468;9.826;2023-04-24T07:02:21;13.80;99.90
44166;DHT22;30476;53.468;9.826;2023-04-24T07:04:47;13.80;99.90
44166;DHT22;30476;53.468;9.826;2023-04-24T07:07:13;13.80;99.90
44166;DHT22;30476;53.468;9.826;2023-04-24T07:09:40;13.90;99.90
44166;DHT22;30476;53.468;9.826;2023-04-24T07:12:08;13.90;99.90
44166;DHT22;30476;53.468;9.826;2023-04-24T07:14:36;14.00;99.90
44166;DHT22;30476;53.468;9.826;2023-04-24T07:17:03;14.10;99.90
44166;DHT22;30476;53.468;9.826;2023-04-24T07:19:29;14.20;99.90
44166;DHT22;30476;53.468;9.826;2023-04-24T07:21:55;14.20;99.90
44166;DHT22;30476;53.468;9.826;2023-04-24T07:24:21;14.30;99.90
44166;DHT22;30476;53.468;9.826;2023-04-24T07:26:46;14.30;99.90
44166;DHT22;30476;53.468;9.826;2023-04-24T07:29:13;14.40;99.90
44166;DHT22;30476;53.468;9.826;2023-04-24T07:31:39;14.40;99.90
44166;DHT22;30476;53.468;9.826;2023-04-24T07:34:06;14.50;99.90
44166;DHT22;30476;53.468;9.826;2023-04-24T07:36:32;14.40;99.90
44166;DHT22;30476;53.468;9.826;2023-04-24T07:38:58;14.40;99.90
44166;DHT22;30476;53.468;9.826;2023-04-24T07:41:24;14.30;99.90
44166;DHT22;30476;53.468;9.826;2023-04-24T07:43:50;14.30;99.90
44166;DHT22;30476;53.468;9.826;2023-04-24T07:46:16;14.30;99.90
44166;DHT22;30476;53.468;9.826;2023-04-24T07:48:42;14.30;99.90
44166;DHT22;30476;53.468;9.826;2023-04-24T07:51:07;14.30;99.90
44166;DHT22;30476;53.468;9.826;2023-04-24T07:53:35;14.40;99.90
44166;DHT22;30476;53.468;9.826;2023-04-24T07:56:01;14.30;99.90
44166;DHT22;30476;53.468;9.826;2023-04-24T07:58:27;14.30;99.90
44166;DHT22;30476;53.468;9.826;2023-04-24T08:00:52;14.20;99.90
44166;DHT22;30476;53.468;9.826;2023-04-24T08:03:18;14.20;99.90
44166;DHT22;30476;53.468;9.826;2023-04-24T08:05:45;14.10;99.90
44166;DHT22;30476;53.468;9.826;2023-04-24T08:08:11;14.20;99.90
44166;DHT22;30476;53.468;9.826;2023-04-24T08:10:37;14.20;99.90
44166;DHT22;30476;53.468;9.826;2023-04-24T08:13:03;14.20;99.90
44166;DHT22;30476;53.468;9.826;2023-04-24T08:15:29;14.20;99.90
44166;DHT22;30476;53.468;9.826;2023-04-24T08:17:54;14.20;99.90
44166;DHT22;30476;53.468;9.826;2023-04-24T08:20:20;14.10;99.90
44166;DHT22;30476;53.468;9.826;2023-04-24T08:22:46;14.10;99.90
44166;DHT22;30476;53.468;9.826;2023-04-24T08:25:14;14.20;99.90
44166;DHT22;30476;53.468;9.826;2023-04-24T08:27:40;14.10;99.90
44166;DHT22;30476;53.468;9.826;2023-04-24T08:30:07;14.20;99.90
44166;DHT22;30476;53.468;9.826;2023-04-24T08:32:33;14.10;99.90
44166;DHT22;30476;53.468;9.826;2023-04-24T08:34:59;14.20;99.90
44166;DHT22;30476;53.468;9.826;2023-04-24T08:37:26;14.20;99.90
44166;DHT22;30476;53.468;9.826;2023-04-24T08:39:52;14.20;99.90
44166;DHT22;30476;53.468;9.826;2023-04-24T08:42:19;14.10;99.90
44166;DHT22;30476;53.468;9.826;2023-04-24T08:44:45;14.20;99.90
44166;DHT22;30476;53.468;9.826;2023-04-24T08:47:11;14.20;99.90
44166;DHT22;30476;53.468;9.826;2023-04-24T08:49:38;14.20;99.90
44166;DHT22;30476;53.468;9.826;2023-04-24T08:52:07;14.10;99.90
44166;DHT22;30476;53.468;9.826;2023-04-24T08:54:35;14.20;99.90
44166;DHT22;30476;53.468;9.826;2023-04-24T08:57:02;14.30;99.90
44166;DHT22;30476;53.468;9.826;2023-04-24T08:59:30;14.40;99.90
44166;DHT22;30476;53.468;9.826;2023-04-24T09:01:56;14.40;99.90
44166;DHT22;30476;53.468;9.826;2023-04-24T09:04:24;14.50;99.90
44166;DHT22;30476;53.468;9.826;2023-04-24T09:06:51;14.50;99.90
44166;DHT22;30476;53.468;9.826;2023-04-24T09:09:20;14.60;99.90
44166;DHT22;30476;53.468;9.826;2023-04-24T09:11:46;14.60;99.90
44166;DHT22;30476;53.468;9.826;2023-04-24T09:14:14;14.60;99.90
44166;DHT22;30476;53.468;9.826;2023-04-24T09:16:40;14.60;99.90
44166;DHT22;30476;53.468;9.826;2023-04-24T09:19:06;14.60;99.90
44166;DHT22;30476;53.468;9.826;2023-04-24T09:21:33;14.60;99.90
44166;DHT22;30476;53.468;9.826;2023-04-24T09:24:01;14.70;99.90
44166;DHT22;30476;53.468;9.826;2023-04-24T09:26:34;14.60;99.90
44166;DHT22;30476;53.468;9.826;2023-04-24T09:29:00;14.50;99.90
44166;DHT22;30476;53.468;9.826;2023-04-24T09:31:29;14.50;99.90
44166;DHT22;30476;53.468;9.826;2023-04-24T09:33:57;14.40;99.90
44166;DHT22;30476;53.468;9.826;2023-04-24T09:36:42;14.40;99.90
44166;DHT22;30476;53.468;9.826;2023-04-24T09:39:10;14.40;99.90
44166;DHT22;30476;53.468;9.826;2023-04-24T09:44:13;14.30;99.90
44166;DHT22;30476;53.468;9.826;2023-04-24T09:46:39;14.30;99.90
44166;DHT22;30476;53.468;9.826;2023-04-24T09:49:09;14.30;99.90
44166;DHT22;30476;53.468;9.826;2023-04-24T09:51:37;14.20;99.90
44166;DHT22;30476;53.468;9.826;2023-04-24T09:54:04;14.20;99.90
44166;DHT22;30476;53.468;9.826;2023-04-24T09:56:36;14.20;99.90
44166;DHT22;30476;53.468;9.826;2023-04-24T09:59:06;14.20;99.90
44166;DHT22;30476;53.468;9.826;2023-04-24T10:01:32;14.20;99.90
44166;DHT22;30476;53.468;9.826;2023-04-24T10:03:58;14.20;99.90
44166;DHT22;30476;53.468;9.826;2023-04-24T10:06:34;14.20;99.90
44166;DHT22;30476;53.468;9.826;2023-04-24T10:09:00;14.10;99.90
44166;DHT22;30476;53.468;9.826;2023-04-24T10:11:27;14.10;99.90
44166;DHT22;30476;53.468;9.826;2023-04-24T10:13:53;14.10;99.90
44166;DHT22;30476;53.468;9.826;2023-04-24T10:16:20;14.10;99.90
44166;DHT22;30476;53.468;9.826;2023-04-24T10:18:48;14.00;99.90
44166;DHT22;30476;53.468;9.826;2023-04-24T10:21:15;14.10;99.90
44166;DHT22;30476;53.468;9.826;2023-04-24T10:23:41;14.10;99.90
44166;DHT22;30476;53.468;9.826;2023-04-24T10:26:09;14.20;99.90
44166;DHT22;30476;53.468;9.826;2023-04-24T10:28:36;14.20;99.90
44166;DHT22;30476;53.468;9.826;2023-04-24T10:31:02;14.30;99.90
44166;DHT22;30476;53.468;9.826;2023-04-24T10:33:29;14.30;99.90
44166;DHT22;30476;53.468;9.826;2023-04-24T10:35:56;14.40;99.90
44166;DHT22;30476;53.468;9.826;2023-04-24T10:38:28;14.30;99.90
44166;DHT22;30476;53.468;9.826;2023-04-24T10:41:06;14.40;99.90
44166;DHT22;30476;53.468;9.826;2023-04-24T10:43:33;14.40;99.90
44166;DHT22;30476;53.468;9.826;2023-04-24T10:46:01;14.30;99.90
44166;DHT22;30476;53.468;9.826;2023-04-24T10:48:27;14.30;99.90
44166;DHT22;30476;53.468;9.826;2023-04-24T10:50:53;14.40;99.90
44166;DHT22;30476;53.468;9.826;2023-04-24T10:53:29;14.40;99.90
44166;DHT22;30476;53.468;9.826;2023-04-24T10:56:09;14.40;99.90
44166;DHT22;30476;53.468;9.826;2023-04-24T10:58:50;14.50;99.90
44166;DHT22;30476;53.468;9.826;2023-04-24T11:01:30;14.60;99.90
44166;DHT22;30476;53.468;9.826;2023-04-24T11:04:03;14.60;99.90
44166;DHT22;30476;53.468;9.826;2023-04-24T11:06:35;14.60;99.90
44166;DHT22;30476;53.468;9.826;2023-04-24T11:09:06;14.70;99.90
44166;DHT22;30476;53.468;9.826;2023-04-24T11:11:33;14.60;99.90
44166;DHT22;30476;53.468;9.826;2023-04-24T11:16:30;14.60;99.90
44166;DHT22;30476;53.468;9.826;2023-04-24T11:19:07;14.60;99.90
44166;DHT22;30476;53.468;9.826;2023-04-24T11:32:36;14.80;99.90
44166;DHT22;30476;53.468;9.826;2023-04-24T11:35:16;14.80;99.90
44166;DHT22;30476;53.468;9.826;2023-04-24T11:40:13;14.80;99.90
44166;DHT22;30476;53.468;9.826;2023-04-24T11:42:42;14.80;99.90
44166;DHT22;30476;53.468;9.826;2023-04-24T11:47:38;14.70;99.90
44166;DHT22;30476;53.468;9.826;2023-04-24T11:50:06;14.80;99.90
44166;DHT22;30476;53.468;9.826;2023-04-24T11:52:37;14.80;99.90
44166;DHT22;30476;53.468;9.826;2023-04-24T11:55:03;14.80;99.90
44166;DHT22;30476;53.468;9.826;2023-04-24T11:57:29;14.70;99.90
44166;DHT22;30476;53.468;9.826;2023-04-24T12:00:03;14.80;99.90
44166;DHT22;30476;53.468;9.826;2023-04-24T12:02:31;14.80;99.90
44166;DHT22;30476;53.468;9.826;2023-04-24T12:04:56;14.70;99.90
44166;DHT22;30476;53.468;9.826;2023-04-24T12:07:23;14.70;99.90
44166;DHT22;30476;53.468;9.826;2023-04-24T12:09:57;14.60;99.90
44166;DHT22;30476;53.468;9.826;2023-04-24T12:12:28;14.60;99.90
44166;DHT22;30476;53.468;9.826;2023-04-24T12:14:58;14.50;99.90
44166;DHT22;30476;53.468;9.826;2023-04-24T12:17:29;14.50;99.90
44166;DHT22;30476;53.468;9.826;2023-04-24T12:20:14;14.50;99.90
44166;DHT22;30476;53.468;9.826;2023-04-24T12:22:54;14.40;99.90
44166;DHT22;30476;53.468;9.826;2023-04-24T12:25:22;14.30;99.90
44166;DHT22;30476;53.468;9.826;2023-04-24T12:30:30;14.30;99.90
44166;DHT22;30476;53.468;9.826;2023-04-24T12:33:00;14.20;99.90
44166;DHT22;30476;53.468;9.826;2023-04-24T12:35:28;14.20;99.90
44166;DHT22;30476;53.468;9.826;2023-04-24T12:37:54;14.20;99.90
44166;DHT22;30476;53.468;9.826;2023-04-24T12:40:21;14.20;99.90
44166;DHT22;30476;53.468;9.826;2023-04-24T12:42:48;14.20;99.90
44166;DHT22;30476;53.468;9.826;2023-04-24T12:45:15;14.20;99.90
44166;DHT22;30476;53.468;9.826;2023-04-24T12:47:42;14.20;99.90
44166;DHT22;30476;53.468;9.826;2023-04-24T12:50:13;14.20;99.90
44166;DHT22;30476;53.468;9.826;2023-04-24T12:52:40;14.10;99.90
44166;DHT22;30476;53.468;9.826;2023-04-24T12:55:06;14.00;99.90
44166;DHT22;30476;53.468;9.826;2023-04-24T12:57:34;14.00;99.90
44166;DHT22;30476;53.468;9.826;2023-04-24T13:00:01;14.10;99.90
44166;DHT22;30476;53.468;9.826;2023-04-24T13:02:28;14.00;99.90
44166;DHT22;30476;53.468;9.826;2023-04-24T13:04:57;14.00;99.90
44166;DHT22;30476;53.468;9.826;2023-04-24T13:07:23;14.10;99.90
44166;DHT22;30476;53.468;9.826;2023-04-24T13:09:50;14.10;99.90
44166;DHT22;30476;53.468;9.826;2023-04-24T13:12:16;14.10;99.90
44166;DHT22;30476;53.468;9.826;2023-04-24T13:14:42;14.10;99.90
44166;DHT22;30476;53.468;9.826;2023-04-24T13:17:08;14.10;99.90
44166;DHT22;30476;53.468;9.826;2023-04-24T13:19:40;14.00;99.90
44166;DHT22;30476;53.468;9.826;2023-04-24T13:22:06;14.10;99.90
44166;DHT22;30476;53.468;9.826;2023-04-24T13:24:33;14.10;99.90
44166;DHT22;30476;53.468;9.826;2023-04-24T13:26:59;14.00;99.90
44166;DHT22;30476;53.468;9.826;2023-04-24T13:29:25;14.00;99.90
44166;DHT22;30476;53.468;9.826;2023-04-24T13:31:52;14.00;99.90
44166;DHT22;30476;53.468;9.826;2023-04-24T13:34:21;14.10;99.90
44166;DHT22;30476;53.468;9.826;2023-04-24T13:36:47;14.10;99.90
44166;DHT22;30476;53.468;9.826;2023-04-24T13:39:13;14.10;99.90
44166;DHT22;30476;53.468;9.826;2023-04-24T13:41:39;14.10;99.90
44166;DHT22;30476;53.468;9.826;2023-04-24T13:44:06;14.20;99.90
44166;DHT22;30476;53.468;9.826;2023-04-24T13:46:32;14.10;99.90
44166;DHT22;30476;53.468;9.826;2023-04-24T13:48:58;14.10;99.90
44166;DHT22;30476;53.468;9.826;2023-04-24T13:51:25;14.20;99.90
44166;DHT22;30476;53.468;9.826;2023-04-24T13:53:53;14.20;99.90
44166;DHT22;30476;53.468;9.826;2023-04-24T13:56:19;14.30;99.90
44166;DHT22;30476;53.468;9.826;2023-04-24T13:58:45;14.30;99.90
44166;DHT22;30476;53.468;9.826;2023-04-24T14:01:12;14.30;99.90
44166;DHT22;30476;53.468;9.826;2023-04-24T14:03:38;14.30;99.90
44166;DHT22;30476;53.468;9.826;2023-04-24T14:06:04;14.30;99.90
44166;DHT22;30476;53.468;9.826;2023-04-24T14:08:32;14.20;99.90
44166;DHT22;30476;53.468;9.826;2023-04-24T14:10:58;14.20;99.90
44166;DHT22;30476;53.468;9.826;2023-04-24T14:13:24;14.20;99.90
44166;DHT22;30476;53.468;9.826;2023-04-24T14:15:50;14.10;99.90
44166;DHT22;30476;53.468;9.826;2023-04-24T14:18:16;14.10;99.90
44166;DHT22;30476;53.468;9.826;2023-04-24T14:20:42;14.00;99.90
44166;DHT22;30476;53.468;9.826;2023-04-24T14:23:08;13.90;99.90
44166;DHT22;30476;53.468;9.826;2023-04-24T14:25:34;13.80;99.90
44166;DHT22;30476;53.468;9.826;2023-04-24T14:28:00;13.80;99.90
44166;DHT22;30476;53.468;9.826;2023-04-24T14:30:25;13.70;99.90
44166;DHT22;30476;53.468;9.826;2023-04-24T14:32:51;13.70;99.90
44166;DHT22;30476;53.468;9.826;2023-04-24T14:35:17;13.70;99.90
44166;DHT22;30476;53.468;9.826;2023-04-24T14:37:43;13.60;99.90
44166;DHT22;30476;53.468;9.826;2023-04-24T14:40:09;13.60;99.90
44166;DHT22;30476;53.468;9.826;2023-04-24T14:42:35;13.50;99.90
44166;DHT22;30476;53.468;9.826;2023-04-24T14:45:01;13.50;99.90
44166;DHT22;30476;53.468;9.826;2023-04-24T14:47:27;13.50;99.90
44166;DHT22;30476;53.468;9.826;2023-04-24T14:49:53;13.40;99.90
44166;DHT22;30476;53.468;9.826;2023-04-24T14:52:19;13.40;99.90
44166;DHT22;30476;53.468;9.826;2023-04-24T14:54:45;13.30;99.90
44166;DHT22;30476;53.468;9.826;2023-04-24T14:57:11;13.30;99.90
44166;DHT22;30476;53.468;9.826;2023-04-24T14:59:37;13.20;99.90
44166;DHT22;30476;53.468;9.826;2023-04-24T15:02:02;13.20;99.90
44166;DHT22;30476;53.468;9.826;2023-04-24T15:04:28;13.20;99.90
44166;DHT22;30476;53.468;9.826;2023-04-24T15:06:55;13.10;99.90
44166;DHT22;30476;53.468;9.826;2023-04-24T15:09:21;13.10;99.90
44166;DHT22;30476;53.468;9.826;2023-04-24T15:11:49;13.10;99.90
44166;DHT22;30476;53.468;9.826;2023-04-24T15:14:15;13.10;99.90
44166;DHT22;30476;53.468;9.826;2023-04-24T15:16:41;13.00;99.90
44166;DHT22;30476;53.468;9.826;2023-04-24T15:19:07;12.90;99.90
44166;DHT22;30476;53.468;9.826;2023-04-24T15:21:33;12.90;99.90
44166;DHT22;30476;53.468;9.826;2023-04-24T15:23:59;12.90;99.90
44166;DHT22;30476;53.468;9.826;2023-04-24T15:26:25;12.80;99.90
44166;DHT22;30476;53.468;9.826;2023-04-24T15:28:51;12.70;99.90
44166;DHT22;30476;53.468;9.826;2023-04-24T15:31:18;12.60;99.90
44166;DHT22;30476;53.468;9.826;2023-04-24T15:33:44;12.60;99.90
44166;DHT22;30476;53.468;9.826;2023-04-24T15:36:10;12.50;99.90
44166;DHT22;30476;53.468;9.826;2023-04-24T15:38:36;12.40;99.90
44166;DHT22;30476;53.468;9.826;2023-04-24T15:41:02;12.40;99.90
44166;DHT22;30476;53.468;9.826;2023-04-24T15:43:28;12.30;99.90
44166;DHT22;30476;53.468;9.826;2023-04-24T15:46:00;12.30;99.90
44166;DHT22;30476;53.468;9.826;2023-04-24T15:48:27;12.30;99.90
44166;DHT22;30476;53.468;9.826;2023-04-24T15:50:53;12.20;99.90